sensor_id;sensor_type;location;lat;lon;timestamp;P1;durP1;ratioP1;P2;durP2;ratioP2
16401;SDS011;8310;44.626;11.176;2022-09-21T00:01:10;2.50;;;1.80;;
16401;SDS011;8310;44.626;11.176;2022-09-21T00:03:41;4.70;;;2.05;;
16401;SDS011;8310;44.626;11.176;2022-09-21T00:06:10;3.05;;;2.20;;
16401;SDS011;8310;44.626;11.176;2022-09-21T00:08:38;2.35;;;2.15;;
16401;SDS011;8310;44.626;11.176;2022-09-21T00:11:10;2.47;;;1.90;;
16401;SDS011;8310;44.626;11.176;2022-09-21T00:13:38;2.13;;;1.92;;
16401;SDS011;8310;44.626;11.176;2022-09-21T00:16:06;2.47;;;2.20;;
16401;SDS011;8310;44.626;11.176;2022-09-21T00:18:35;2.17;;;1.83;;
16401;SDS011;8310;44.626;11.176;2022-09-21T00:21:05;2.45;;;2.17;;
16401;SDS011;8310;44.626;11.176;2022-09-21T00:23:34;3.67;;;1.83;;
16401;SDS011;8310;44.626;11.176;2022-09-21T00:26:07;2.40;;;2.05;;
16401;SDS011;8310;44.626;11.176;2022-09-21T00:28:36;4.40;;;1.90;;
16401;SDS011;8310;44.626;11.176;2022-09-21T00:31:05;2.00;;;1.90;;
16401;SDS011;8310;44.626;11.176;2022-09-21T00:33:33;2.25;;;2.05;;
16401;SDS011;8310;44.626;11.176;2022-09-21T00:36:02;2.50;;;2.08;;
16401;SDS011;8310;44.626;11.176;2022-09-21T00:38:30;2.20;;;2.00;;
16401;SDS011;8310;44.626;11.176;2022-09-21T00:40:59;2.92;;;2.17;;
16401;SDS011;8310;44.626;11.176;2022-09-21T00:43:28;2.00;;;1.90;;
16401;SDS011;8310;44.626;11.176;2022-09-21T00:45:59;2.05;;;1.88;;
16401;SDS011;8310;44.626;11.176;2022-09-21T00:48:28;2.75;;;2.55;;
16401;SDS011;8310;44.626;11.176;2022-09-21T00:50:58;2.00;;;1.80;;
16401;SDS011;8310;44.626;11.176;2022-09-21T00:53:29;3.13;;;2.00;;
16401;SDS011;8310;44.626;11.176;2022-09-21T00:55:57;3.10;;;1.95;;
16401;SDS011;8310;44.626;11.176;2022-09-21T00:58:28;2.90;;;2.00;;
16401;SDS011;8310;44.626;11.176;2022-09-21T01:00:59;2.28;;;1.80;;
16401;SDS011;8310;44.626;11.176;2022-09-21T01:03:27;2.03;;;1.92;;
16401;SDS011;8310;44.626;11.176;2022-09-21T01:05:57;2.20;;;2.00;;
16401;SDS011;8310;44.626;11.176;2022-09-21T01:08:24;2.95;;;2.55;;
16401;SDS011;8310;44.626;11.176;2022-09-21T01:11:04;2.75;;;2.15;;
16401;SDS011;8310;44.626;11.176;2022-09-21T01:13:53;2.55;;;2.10;;
16401;SDS011;8310;44.626;11.176;2022-09-21T01:16:37;2.05;;;1.95;;
16401;SDS011;8310;44.626;11.176;2022-09-21T01:19:21;3.17;;;2.05;;
16401;SDS011;8310;44.626;11.176;2022-09-21T01:22:05;2.95;;;2.17;;
16401;SDS011;8310;44.626;11.176;2022-09-21T01:24:50;2.55;;;2.10;;
16401;SDS011;8310;44.626;11.176;2022-09-21T01:27:37;2.55;;;2.28;;
16401;SDS011;8310;44.626;11.176;2022-09-21T01:30:14;2.85;;;1.83;;
16401;SDS011;8310;44.626;11.176;2022-09-21T01:32:45;2.85;;;2.10;;
16401;SDS011;8310;44.626;11.176;2022-09-21T01:35:19;4.13;;;2.03;;
16401;SDS011;8310;44.626;11.176;2022-09-21T01:37:50;2.30;;;2.00;;
16401;SDS011;8310;44.626;11.176;2022-09-21T01:40:22;2.28;;;1.98;;
16401;SDS011;8310;44.626;11.176;2022-09-21T01:42:52;2.00;;;1.90;;
16401;SDS011;8310;44.626;11.176;2022-09-21T01:45:24;2.15;;;2.00;;
16401;SDS011;8310;44.626;11.176;2022-09-21T01:47:56;2.55;;;2.28;;
16401;SDS011;8310;44.626;11.176;2022-09-21T01:50:28;2.95;;;1.83;;
16401;SDS011;8310;44.626;11.176;2022-09-21T01:53:01;2.30;;;2.10;;
16401;SDS011;8310;44.626;11.176;2022-09-21T01:55:33;2.10;;;1.83;;
16401;SDS011;8310;44.626;11.176;2022-09-21T01:58:06;3.03;;;1.95;;
16401;SDS011;8310;44.626;11.176;2022-09-21T02:00:40;2.45;;;2.25;;
16401;SDS011;8310;44.626;11.176;2022-09-21T02:03:10;2.25;;;1.70;;
16401;SDS011;8310;44.626;11.176;2022-09-21T02:05:41;2.53;;;2.00;;
16401;SDS011;8310;44.626;11.176;2022-09-21T02:08:09;2.75;;;1.90;;
16401;SDS011;8310;44.626;11.176;2022-09-21T02:10:38;2.70;;;2.50;;
16401;SDS011;8310;44.626;11.176;2022-09-21T02:13:10;1.98;;;1.88;;
16401;SDS011;8310;44.626;11.176;2022-09-21T02:15:47;1.80;;;1.70;;
16401;SDS011;8310;44.626;11.176;2022-09-21T02:18:27;2.95;;;1.88;;
16401;SDS011;8310;44.626;11.176;2022-09-21T02:21:02;2.20;;;2.00;;
16401;SDS011;8310;44.626;11.176;2022-09-21T02:23:39;1.80;;;1.70;;
16401;SDS011;8310;44.626;11.176;2022-09-21T02:26:12;1.90;;;1.80;;
16401;SDS011;8310;44.626;11.176;2022-09-21T02:28:46;2.75;;;2.20;;
16401;SDS011;8310;44.626;11.176;2022-09-21T02:31:20;2.15;;;1.92;;
16401;SDS011;8310;44.626;11.176;2022-09-21T02:33:57;2.38;;;2.28;;
16401;SDS011;8310;44.626;11.176;2022-09-21T02:36:29;2.80;;;2.20;;
16401;SDS011;8310;44.626;11.176;2022-09-21T02:39:02;2.90;;;2.65;;
16401;SDS011;8310;44.626;11.176;2022-09-21T02:41:34;2.30;;;2.10;;
16401;SDS011;8310;44.626;11.176;2022-09-21T02:44:06;2.60;;;2.08;;
16401;SDS011;8310;44.626;11.176;2022-09-21T02:46:39;2.30;;;2.10;;
16401;SDS011;8310;44.626;11.176;2022-09-21T02:49:11;2.00;;;1.90;;
16401;SDS011;8310;44.626;11.176;2022-09-21T02:51:43;3.13;;;2.10;;
16401;SDS011;8310;44.626;11.176;2022-09-21T02:54:13;2.47;;;1.85;;
16401;SDS011;8310;44.626;11.176;2022-09-21T02:56:43;2.65;;;2.00;;
16401;SDS011;8310;44.626;11.176;2022-09-21T02:59:15;2.05;;;1.83;;
16401;SDS011;8310;44.626;11.176;2022-09-21T03:01:44;3.17;;;1.83;;
16401;SDS011;8310;44.626;11.176;2022-09-21T03:04:13;2.55;;;1.80;;
16401;SDS011;8310;44.626;11.176;2022-09-21T03:06:40;1.75;;;1.55;;
16401;SDS011;8310;44.626;11.176;2022-09-21T03:09:08;2.10;;;2.00;;
16401;SDS011;8310;44.626;11.176;2022-09-21T03:11:35;2.60;;;2.00;;
16401;SDS011;8310;44.626;11.176;2022-09-21T03:14:03;1.95;;;1.85;;
16401;SDS011;8310;44.626;11.176;2022-09-21T03:16:32;3.05;;;1.85;;
16401;SDS011;8310;44.626;11.176;2022-09-21T03:19:01;3.88;;;1.90;;
16401;SDS011;8310;44.626;11.176;2022-09-21T03:21:29;2.63;;;1.63;;
16401;SDS011;8310;44.626;11.176;2022-09-21T03:23:57;1.70;;;1.60;;
16401;SDS011;8310;44.626;11.176;2022-09-21T03:26:25;2.28;;;1.98;;
16401;SDS011;8310;44.626;11.176;2022-09-21T03:28:52;1.77;;;1.67;;
16401;SDS011;8310;44.626;11.176;2022-09-21T03:31:20;4.03;;;1.70;;
16401;SDS011;8310;44.626;11.176;2022-09-21T03:33:48;2.05;;;1.80;;
16401;SDS011;8310;44.626;11.176;2022-09-21T03:36:17;3.17;;;1.40;;
16401;SDS011;8310;44.626;11.176;2022-09-21T03:38:45;1.98;;;1.40;;
16401;SDS011;8310;44.626;11.176;2022-09-21T03:41:13;1.50;;;1.10;;
16401;SDS011;8310;44.626;11.176;2022-09-21T03:43:40;2.33;;;1.30;;
16401;SDS011;8310;44.626;11.176;2022-09-21T03:46:08;2.40;;;1.05;;
16401;SDS011;8310;44.626;11.176;2022-09-21T03:48:35;1.77;;;0.90;;
16401;SDS011;8310;44.626;11.176;2022-09-21T03:51:04;1.77;;;1.00;;
16401;SDS011;8310;44.626;11.176;2022-09-21T03:53:33;1.65;;;1.20;;
16401;SDS011;8310;44.626;11.176;2022-09-21T03:56:26;0.98;;;0.98;;
16401;SDS011;8310;44.626;11.176;2022-09-21T03:58:54;1.80;;;1.05;;
16401;SDS011;8310;44.626;11.176;2022-09-21T04:01:21;0.98;;;0.88;;
16401;SDS011;8310;44.626;11.176;2022-09-21T04:03:49;1.30;;;1.20;;
16401;SDS011;8310;44.626;11.176;2022-09-21T04:06:17;1.23;;;1.23;;
16401;SDS011;8310;44.626;11.176;2022-09-21T04:08:47;1.65;;;1.10;;
16401;SDS011;8310;44.626;11.176;2022-09-21T04:11:14;1.30;;;1.13;;
16401;SDS011;8310;44.626;11.176;2022-09-21T04:13:48;2.35;;;1.50;;
16401;SDS011;8310;44.626;11.176;2022-09-21T04:16:21;1.95;;;1.38;;
16401;SDS011;8310;44.626;11.176;2022-09-21T04:18:49;1.33;;;1.30;;
16401;SDS011;8310;44.626;11.176;2022-09-21T04:21:17;1.20;;;1.20;;
16401;SDS011;8310;44.626;11.176;2022-09-21T04:23:47;1.67;;;1.58;;
16401;SDS011;8310;44.626;11.176;2022-09-21T04:26:17;3.58;;;1.65;;
16401;SDS011;8310;44.626;11.176;2022-09-21T04:28:49;1.50;;;1.40;;
16401;SDS011;8310;44.626;11.176;2022-09-21T04:31:16;3.42;;;1.55;;
16401;SDS011;8310;44.626;11.176;2022-09-21T04:33:46;1.85;;;1.48;;
16401;SDS011;8310;44.626;11.176;2022-09-21T04:36:15;1.80;;;1.67;;
16401;SDS011;8310;44.626;11.176;2022-09-21T04:38:43;4.07;;;1.60;;
16401;SDS011;8310;44.626;11.176;2022-09-21T04:41:13;2.90;;;2.30;;
16401;SDS011;8310;44.626;11.176;2022-09-21T04:43:41;2.63;;;2.42;;
16401;SDS011;8310;44.626;11.176;2022-09-21T04:46:11;3.53;;;2.40;;
16401;SDS011;8310;44.626;11.176;2022-09-21T04:48:39;3.13;;;2.63;;
16401;SDS011;8310;44.626;11.176;2022-09-21T04:51:08;5.72;;;2.75;;
16401;SDS011;8310;44.626;11.176;2022-09-21T04:53:36;4.32;;;2.60;;
16401;SDS011;8310;44.626;11.176;2022-09-21T04:56:06;4.85;;;3.03;;
16401;SDS011;8310;44.626;11.176;2022-09-21T04:58:35;5.47;;;3.58;;
16401;SDS011;8310;44.626;11.176;2022-09-21T05:01:02;3.35;;;2.92;;
16401;SDS011;8310;44.626;11.176;2022-09-21T05:03:30;3.50;;;3.20;;
16401;SDS011;8310;44.626;11.176;2022-09-21T05:05:57;3.30;;;3.00;;
16401;SDS011;8310;44.626;11.176;2022-09-21T05:08:25;3.40;;;2.97;;
16401;SDS011;8310;44.626;11.176;2022-09-21T05:11:11;3.60;;;3.00;;
16401;SDS011;8310;44.626;11.176;2022-09-21T05:13:44;2.97;;;2.50;;
16401;SDS011;8310;44.626;11.176;2022-09-21T05:16:12;3.45;;;3.15;;
16401;SDS011;8310;44.626;11.176;2022-09-21T05:18:41;4.18;;;2.88;;
16401;SDS011;8310;44.626;11.176;2022-09-21T05:21:09;3.28;;;3.03;;
16401;SDS011;8310;44.626;11.176;2022-09-21T05:23:38;3.85;;;3.13;;
16401;SDS011;8310;44.626;11.176;2022-09-21T05:26:05;3.47;;;3.17;;
16401;SDS011;8310;44.626;11.176;2022-09-21T05:28:34;3.33;;;2.90;;
16401;SDS011;8310;44.626;11.176;2022-09-21T05:31:18;3.67;;;2.92;;
16401;SDS011;8310;44.626;11.176;2022-09-21T05:33:57;5.47;;;3.10;;
16401;SDS011;8310;44.626;11.176;2022-09-21T05:36:33;3.10;;;2.80;;
16401;SDS011;8310;44.626;11.176;2022-09-21T05:39:14;4.43;;;2.97;;
16401;SDS011;8310;44.626;11.176;2022-09-21T05:41:42;3.00;;;2.80;;
16401;SDS011;8310;44.626;11.176;2022-09-21T05:44:11;4.38;;;2.97;;
16401;SDS011;8310;44.626;11.176;2022-09-21T05:46:41;3.10;;;2.90;;
16401;SDS011;8310;44.626;11.176;2022-09-21T05:49:16;3.28;;;2.95;;
16401;SDS011;8310;44.626;11.176;2022-09-21T05:51:49;6.00;;;2.88;;
16401;SDS011;8310;44.626;11.176;2022-09-21T05:54:28;4.72;;;3.20;;
16401;SDS011;8310;44.626;11.176;2022-09-21T05:57:08;3.40;;;2.97;;
16401;SDS011;8310;44.626;11.176;2022-09-21T05:59:47;4.50;;;3.67;;
16401;SDS011;8310;44.626;11.176;2022-09-21T06:02:31;3.10;;;2.90;;
16401;SDS011;8310;44.626;11.176;2022-09-21T06:05:13;3.70;;;2.70;;
16401;SDS011;8310;44.626;11.176;2022-09-21T06:07:41;5.47;;;3.13;;
16401;SDS011;8310;44.626;11.176;2022-09-21T06:10:12;4.15;;;3.83;;
16401;SDS011;8310;44.626;11.176;2022-09-21T06:12:40;5.18;;;3.20;;
16401;SDS011;8310;44.626;11.176;2022-09-21T06:15:09;4.97;;;3.08;;
16401;SDS011;8310;44.626;11.176;2022-09-21T06:17:39;5.35;;;3.00;;
16401;SDS011;8310;44.626;11.176;2022-09-21T06:20:07;4.18;;;3.22;;
16401;SDS011;8310;44.626;11.176;2022-09-21T06:22:35;2.92;;;2.72;;
16401;SDS011;8310;44.626;11.176;2022-09-21T06:25:02;3.40;;;3.20;;
16401;SDS011;8310;44.626;11.176;2022-09-21T06:27:30;4.40;;;3.10;;
16401;SDS011;8310;44.626;11.176;2022-09-21T06:29:58;2.95;;;2.75;;
16401;SDS011;8310;44.626;11.176;2022-09-21T06:32:25;3.35;;;3.05;;
16401;SDS011;8310;44.626;11.176;2022-09-21T06:34:55;3.60;;;2.92;;
16401;SDS011;8310;44.626;11.176;2022-09-21T06:37:22;3.88;;;2.95;;
16401;SDS011;8310;44.626;11.176;2022-09-21T06:39:50;4.30;;;2.83;;
16401;SDS011;8310;44.626;11.176;2022-09-21T06:42:17;6.72;;;2.83;;
16401;SDS011;8310;44.626;11.176;2022-09-21T06:44:45;4.25;;;2.47;;
16401;SDS011;8310;44.626;11.176;2022-09-21T06:47:12;2.33;;;2.20;;
16401;SDS011;8310;44.626;11.176;2022-09-21T06:49:40;6.18;;;2.35;;
16401;SDS011;8310;44.626;11.176;2022-09-21T06:52:09;7.47;;;2.95;;
16401;SDS011;8310;44.626;11.176;2022-09-21T06:54:36;4.85;;;2.10;;
16401;SDS011;8310;44.626;11.176;2022-09-21T06:57:05;3.30;;;2.25;;
16401;SDS011;8310;44.626;11.176;2022-09-21T06:59:32;3.70;;;2.30;;
16401;SDS011;8310;44.626;11.176;2022-09-21T07:02:00;5.38;;;2.15;;
16401;SDS011;8310;44.626;11.176;2022-09-21T07:04:27;4.95;;;2.75;;
16401;SDS011;8310;44.626;11.176;2022-09-21T07:06:56;6.57;;;2.00;;
16401;SDS011;8310;44.626;11.176;2022-09-21T07:09:26;2.53;;;2.13;;
16401;SDS011;8310;44.626;11.176;2022-09-21T07:11:54;7.85;;;2.38;;
16401;SDS011;8310;44.626;11.176;2022-09-21T07:14:23;3.17;;;2.50;;
16401;SDS011;8310;44.626;11.176;2022-09-21T07:16:51;3.25;;;2.15;;
16401;SDS011;8310;44.626;11.176;2022-09-21T07:19:19;3.97;;;1.85;;
16401;SDS011;8310;44.626;11.176;2022-09-21T07:21:47;3.35;;;1.67;;
16401;SDS011;8310;44.626;11.176;2022-09-21T07:24:14;2.75;;;1.80;;
16401;SDS011;8310;44.626;11.176;2022-09-21T07:26:44;2.67;;;1.50;;
16401;SDS011;8310;44.626;11.176;2022-09-21T07:29:11;1.30;;;1.27;;
16401;SDS011;8310;44.626;11.176;2022-09-21T07:31:41;4.55;;;1.67;;
16401;SDS011;8310;44.626;11.176;2022-09-21T07:34:09;3.53;;;2.60;;
16401;SDS011;8310;44.626;11.176;2022-09-21T07:36:36;2.70;;;2.10;;
16401;SDS011;8310;44.626;11.176;2022-09-21T07:39:04;3.35;;;2.08;;
16401;SDS011;8310;44.626;11.176;2022-09-21T07:41:36;3.33;;;2.03;;
16401;SDS011;8310;44.626;11.176;2022-09-21T07:44:06;3.67;;;2.10;;
16401;SDS011;8310;44.626;11.176;2022-09-21T07:46:34;4.05;;;2.42;;
16401;SDS011;8310;44.626;11.176;2022-09-21T07:49:02;2.28;;;2.08;;
16401;SDS011;8310;44.626;11.176;2022-09-21T07:51:30;3.47;;;1.92;;
16401;SDS011;8310;44.626;11.176;2022-09-21T07:53:57;2.88;;;1.98;;
16401;SDS011;8310;44.626;11.176;2022-09-21T07:56:25;2.55;;;1.60;;
16401;SDS011;8310;44.626;11.176;2022-09-21T07:58:52;2.53;;;1.85;;
16401;SDS011;8310;44.626;11.176;2022-09-21T08:01:32;2.30;;;1.80;;
16401;SDS011;8310;44.626;11.176;2022-09-21T08:04:00;3.53;;;1.88;;
16401;SDS011;8310;44.626;11.176;2022-09-21T08:06:29;3.88;;;2.42;;
16401;SDS011;8310;44.626;11.176;2022-09-21T08:09:04;3.88;;;2.22;;
16401;SDS011;8310;44.626;11.176;2022-09-21T08:11:32;3.00;;;1.85;;
16401;SDS011;8310;44.626;11.176;2022-09-21T08:14:01;3.95;;;1.88;;
16401;SDS011;8310;44.626;11.176;2022-09-21T08:16:29;2.85;;;2.53;;
16401;SDS011;8310;44.626;11.176;2022-09-21T08:18:59;2.45;;;1.88;;
16401;SDS011;8310;44.626;11.176;2022-09-21T08:21:27;3.78;;;1.60;;
16401;SDS011;8310;44.626;11.176;2022-09-21T08:23:55;1.92;;;1.30;;
16401;SDS011;8310;44.626;11.176;2022-09-21T08:26:23;1.48;;;1.35;;
16401;SDS011;8310;44.626;11.176;2022-09-21T08:28:52;1.63;;;1.40;;
16401;SDS011;8310;44.626;11.176;2022-09-21T08:31:22;1.95;;;1.40;;
16401;SDS011;8310;44.626;11.176;2022-09-21T08:33:53;2.20;;;1.40;;
16401;SDS011;8310;44.626;11.176;2022-09-21T08:36:21;2.08;;;1.35;;
16401;SDS011;8310;44.626;11.176;2022-09-21T08:38:49;1.85;;;1.50;;
16401;SDS011;8310;44.626;11.176;2022-09-21T08:41:17;1.00;;;1.00;;
16401;SDS011;8310;44.626;11.176;2022-09-21T08:43:47;3.60;;;1.30;;
16401;SDS011;8310;44.626;11.176;2022-09-21T08:46:18;2.03;;;1.30;;
16401;SDS011;8310;44.626;11.176;2022-09-21T08:48:49;1.70;;;1.05;;
16401;SDS011;8310;44.626;11.176;2022-09-21T08:51:25;2.25;;;1.48;;
16401;SDS011;8310;44.626;11.176;2022-09-21T08:53:56;1.70;;;1.45;;
16401;SDS011;8310;44.626;11.176;2022-09-21T08:56:29;1.65;;;1.55;;
16401;SDS011;8310;44.626;11.176;2022-09-21T08:58:57;1.10;;;1.10;;
16401;SDS011;8310;44.626;11.176;2022-09-21T09:01:28;1.77;;;1.20;;
16401;SDS011;8310;44.626;11.176;2022-09-21T09:04:21;1.63;;;1.27;;
16401;SDS011;8310;44.626;11.176;2022-09-21T09:07:01;1.95;;;1.20;;
16401;SDS011;8310;44.626;11.176;2022-09-21T09:09:40;2.15;;;1.50;;
16401;SDS011;8310;44.626;11.176;2022-09-21T09:12:19;1.98;;;1.65;;
16401;SDS011;8310;44.626;11.176;2022-09-21T09:15:04;1.65;;;1.55;;
16401;SDS011;8310;44.626;11.176;2022-09-21T09:17:44;1.02;;;1.02;;
16401;SDS011;8310;44.626;11.176;2022-09-21T09:20:21;1.33;;;1.00;;
16401;SDS011;8310;44.626;11.176;2022-09-21T09:22:55;2.50;;;1.00;;
16401;SDS011;8310;44.626;11.176;2022-09-21T09:25:32;1.38;;;1.15;;
16401;SDS011;8310;44.626;11.176;2022-09-21T09:28:08;1.83;;;1.00;;
16401;SDS011;8310;44.626;11.176;2022-09-21T09:30:43;1.00;;;1.00;;
16401;SDS011;8310;44.626;11.176;2022-09-21T09:33:12;1.50;;;1.40;;
16401;SDS011;8310;44.626;11.176;2022-09-21T09:35:47;1.40;;;1.30;;
16401;SDS011;8310;44.626;11.176;2022-09-21T09:38:18;1.83;;;1.30;;
16401;SDS011;8310;44.626;11.176;2022-09-21T09:40:55;2.70;;;1.20;;
16401;SDS011;8310;44.626;11.176;2022-09-21T09:43:43;1.90;;;1.50;;
16401;SDS011;8310;44.626;11.176;2022-09-21T09:46:24;1.50;;;1.40;;
16401;SDS011;8310;44.626;11.176;2022-09-21T09:49:11;1.40;;;1.30;;
16401;SDS011;8310;44.626;11.176;2022-09-21T09:51:50;1.50;;;1.40;;
16401;SDS011;8310;44.626;11.176;2022-09-21T09:54:18;1.60;;;1.50;;
16401;SDS011;8310;44.626;11.176;2022-09-21T09:56:52;2.85;;;1.67;;
16401;SDS011;8310;44.626;11.176;2022-09-21T09:59:22;2.22;;;1.75;;
16401;SDS011;8310;44.626;11.176;2022-09-21T10:02:00;1.60;;;1.48;;
16401;SDS011;8310;44.626;11.176;2022-09-21T10:04:29;2.78;;;1.50;;
16401;SDS011;8310;44.626;11.176;2022-09-21T10:07:00;4.03;;;1.88;;
16401;SDS011;8310;44.626;11.176;2022-09-21T10:09:28;1.48;;;1.30;;
16401;SDS011;8310;44.626;11.176;2022-09-21T10:11:57;2.90;;;1.60;;
16401;SDS011;8310;44.626;11.176;2022-09-21T10:14:30;2.85;;;1.40;;
16401;SDS011;8310;44.626;11.176;2022-09-21T10:17:03;1.60;;;1.25;;
16401;SDS011;8310;44.626;11.176;2022-09-21T10:19:34;2.60;;;1.50;;
16401;SDS011;8310;44.626;11.176;2022-09-21T10:22:03;4.35;;;1.60;;
16401;SDS011;8310;44.626;11.176;2022-09-21T10:24:32;2.65;;;1.60;;
16401;SDS011;8310;44.626;11.176;2022-09-21T10:27:06;2.05;;;1.50;;
16401;SDS011;8310;44.626;11.176;2022-09-21T10:29:40;1.40;;;1.30;;
16401;SDS011;8310;44.626;11.176;2022-09-21T10:32:17;2.10;;;1.23;;
16401;SDS011;8310;44.626;11.176;2022-09-21T10:37:41;1.98;;;1.40;;
16401;SDS011;8310;44.626;11.176;2022-09-21T10:40:23;2.38;;;1.60;;
16401;SDS011;8310;44.626;11.176;2022-09-21T10:42:53;2.65;;;1.38;;
16401;SDS011;8310;44.626;11.176;2022-09-21T10:45:23;1.10;;;1.00;;
16401;SDS011;8310;44.626;11.176;2022-09-21T10:47:54;2.58;;;1.30;;
16401;SDS011;8310;44.626;11.176;2022-09-21T10:50:25;2.50;;;1.15;;
16401;SDS011;8310;44.626;11.176;2022-09-21T10:52:57;4.50;;;1.30;;
16401;SDS011;8310;44.626;11.176;2022-09-21T10:55:28;5.32;;;2.20;;
16401;SDS011;8310;44.626;11.176;2022-09-21T10:57:57;2.55;;;1.27;;
16401;SDS011;8310;44.626;11.176;2022-09-21T11:00:27;1.23;;;1.05;;
16401;SDS011;8310;44.626;11.176;2022-09-21T11:03:00;2.08;;;1.15;;
16401;SDS011;8310;44.626;11.176;2022-09-21T11:05:32;3.03;;;1.13;;
16401;SDS011;8310;44.626;11.176;2022-09-21T11:08:08;1.40;;;1.30;;
16401;SDS011;8310;44.626;11.176;2022-09-21T11:10:42;1.52;;;1.10;;
16401;SDS011;8310;44.626;11.176;2022-09-21T11:13:18;1.67;;;1.00;;
16401;SDS011;8310;44.626;11.176;2022-09-21T11:15:53;1.75;;;0.90;;
16401;SDS011;8310;44.626;11.176;2022-09-21T11:18:29;7.82;;;1.20;;
16401;SDS011;8310;44.626;11.176;2022-09-21T11:21:08;3.33;;;1.33;;
16401;SDS011;8310;44.626;11.176;2022-09-21T11:23:48;13.20;;;2.85;;
16401;SDS011;8310;44.626;11.176;2022-09-21T11:26:23;3.40;;;1.00;;
16401;SDS011;8310;44.626;11.176;2022-09-21T11:28:55;3.42;;;1.42;;
16401;SDS011;8310;44.626;11.176;2022-09-21T11:34:33;2.72;;;1.10;;
16401;SDS011;8310;44.626;11.176;2022-09-21T11:37:29;2.30;;;0.98;;
16401;SDS011;8310;44.626;11.176;2022-09-21T11:40:15;0.80;;;0.80;;
16401;SDS011;8310;44.626;11.176;2022-09-21T11:43:13;2.50;;;0.90;;
16401;SDS011;8310;44.626;11.176;2022-09-21T11:45:51;5.05;;;1.20;;
16401;SDS011;8310;44.626;11.176;2022-09-21T11:48:30;1.75;;;0.93;;
16401;SDS011;8310;44.626;11.176;2022-09-21T11:51:17;2.08;;;1.00;;
16401;SDS011;8310;44.626;11.176;2022-09-21T11:56:57;1.48;;;1.00;;
16401;SDS011;8310;44.626;11.176;2022-09-21T11:59:42;0.98;;;0.90;;
16401;SDS011;8310;44.626;11.176;2022-09-21T12:02:28;2.08;;;1.15;;
16401;SDS011;8310;44.626;11.176;2022-09-21T12:05:19;1.58;;;0.90;;
16401;SDS011;8310;44.626;11.176;2022-09-21T12:07:57;1.77;;;0.60;;
16401;SDS011;8310;44.626;11.176;2022-09-21T12:10:46;1.63;;;0.80;;
16401;SDS011;8310;44.626;11.176;2022-09-21T12:13:25;0.57;;;0.57;;
16401;SDS011;8310;44.626;11.176;2022-09-21T12:16:00;10.13;;;1.95;;
16401;SDS011;8310;44.626;11.176;2022-09-21T12:18:33;0.90;;;0.65;;
16401;SDS011;8310;44.626;11.176;2022-09-21T12:21:08;1.17;;;0.70;;
16401;SDS011;8310;44.626;11.176;2022-09-21T12:23:40;1.77;;;1.00;;
16401;SDS011;8310;44.626;11.176;2022-09-21T12:26:10;1.77;;;1.67;;
16401;SDS011;8310;44.626;11.176;2022-09-21T12:28:45;0.65;;;0.65;;
16401;SDS011;8310;44.626;11.176;2022-09-21T12:31:17;0.88;;;0.88;;
16401;SDS011;8310;44.626;11.176;2022-09-21T12:33:53;0.93;;;0.80;;
16401;SDS011;8310;44.626;11.176;2022-09-21T12:36:24;2.10;;;0.68;;
16401;SDS011;8310;44.626;11.176;2022-09-21T12:38:57;1.90;;;0.80;;
16401;SDS011;8310;44.626;11.176;2022-09-21T12:41:29;0.93;;;0.85;;
16401;SDS011;8310;44.626;11.176;2022-09-21T12:44:03;2.65;;;1.10;;
16401;SDS011;8310;44.626;11.176;2022-09-21T12:46:42;1.25;;;0.82;;
16401;SDS011;8310;44.626;11.176;2022-09-21T12:49:15;2.75;;;1.73;;
16401;SDS011;8310;44.626;11.176;2022-09-21T12:51:47;0.65;;;0.65;;
16401;SDS011;8310;44.626;11.176;2022-09-21T12:54:22;1.33;;;0.70;;
16401;SDS011;8310;44.626;11.176;2022-09-21T12:56:56;0.50;;;0.50;;
16401;SDS011;8310;44.626;11.176;2022-09-21T12:59:32;0.70;;;0.52;;
16401;SDS011;8310;44.626;11.176;2022-09-21T13:02:12;0.75;;;0.75;;
16401;SDS011;8310;44.626;11.176;2022-09-21T13:04:56;1.52;;;0.80;;
16401;SDS011;8310;44.626;11.176;2022-09-21T13:07:44;0.47;;;0.40;;
16401;SDS011;8310;44.626;11.176;2022-09-21T13:10:35;0.63;;;0.63;;
16401;SDS011;8310;44.626;11.176;2022-09-21T13:13:13;0.50;;;0.50;;
16401;SDS011;8310;44.626;11.176;2022-09-21T13:15:51;0.68;;;0.68;;
16401;SDS011;8310;44.626;11.176;2022-09-21T13:18:21;1.08;;;0.77;;
16401;SDS011;8310;44.626;11.176;2022-09-21T13:20:50;0.80;;;0.77;;
16401;SDS011;8310;44.626;11.176;2022-09-21T13:23:20;0.50;;;0.50;;
16401;SDS011;8310;44.626;11.176;2022-09-21T13:25:57;0.75;;;0.47;;
16401;SDS011;8310;44.626;11.176;2022-09-21T13:31:41;2.53;;;0.73;;
16401;SDS011;8310;44.626;11.176;2022-09-21T13:34:28;0.88;;;0.60;;
16401;SDS011;8310;44.626;11.176;2022-09-21T13:43:15;0.55;;;0.55;;
16401;SDS011;8310;44.626;11.176;2022-09-21T13:45:58;1.33;;;0.77;;
16401;SDS011;8310;44.626;11.176;2022-09-21T13:48:27;0.52;;;0.52;;
16401;SDS011;8310;44.626;11.176;2022-09-21T13:50:55;0.98;;;0.68;;
16401;SDS011;8310;44.626;11.176;2022-09-21T13:53:29;8.40;;;1.30;;
16401;SDS011;8310;44.626;11.176;2022-09-21T13:56:00;1.10;;;1.00;;
16401;SDS011;8310;44.626;11.176;2022-09-21T13:58:33;1.90;;;0.75;;
16401;SDS011;8310;44.626;11.176;2022-09-21T14:01:06;0.63;;;0.50;;
16401;SDS011;8310;44.626;11.176;2022-09-21T14:03:43;1.73;;;1.02;;
16401;SDS011;8310;44.626;11.176;2022-09-21T14:06:13;1.83;;;0.60;;
16401;SDS011;8310;44.626;11.176;2022-09-21T14:08:46;0.60;;;0.60;;
16401;SDS011;8310;44.626;11.176;2022-09-21T14:11:16;1.40;;;0.63;;
16401;SDS011;8310;44.626;11.176;2022-09-21T14:13:59;0.50;;;0.50;;
16401;SDS011;8310;44.626;11.176;2022-09-21T14:16:52;0.68;;;0.60;;
16401;SDS011;8310;44.626;11.176;2022-09-21T14:22:37;0.85;;;0.82;;
16401;SDS011;8310;44.626;11.176;2022-09-21T14:25:26;0.52;;;0.52;;
16401;SDS011;8310;44.626;11.176;2022-09-21T14:28:02;0.75;;;0.73;;
16401;SDS011;8310;44.626;11.176;2022-09-21T14:30:37;1.35;;;0.82;;
16401;SDS011;8310;44.626;11.176;2022-09-21T14:35:55;3.40;;;0.73;;
16401;SDS011;8310;44.626;11.176;2022-09-21T14:38:28;0.70;;;0.52;;
16401;SDS011;8310;44.626;11.176;2022-09-21T14:41:02;0.73;;;0.63;;
16401;SDS011;8310;44.626;11.176;2022-09-21T14:43:31;0.55;;;0.55;;
16401;SDS011;8310;44.626;11.176;2022-09-21T14:49:10;1.05;;;0.70;;
16401;SDS011;8310;44.626;11.176;2022-09-21T14:51:50;0.98;;;0.70;;
16401;SDS011;8310;44.626;11.176;2022-09-21T14:54:40;0.73;;;0.70;;
16401;SDS011;8310;44.626;11.176;2022-09-21T14:57:18;0.65;;;0.60;;
16401;SDS011;8310;44.626;11.176;2022-09-21T15:00:03;0.45;;;0.45;;
16401;SDS011;8310;44.626;11.176;2022-09-21T15:02:45;1.02;;;0.65;;
16401;SDS011;8310;44.626;11.176;2022-09-21T15:05:22;0.60;;;0.60;;
16401;SDS011;8310;44.626;11.176;2022-09-21T15:08:06;2.03;;;0.75;;
16401;SDS011;8310;44.626;11.176;2022-09-21T15:11:07;1.90;;;1.10;;
16401;SDS011;8310;44.626;11.176;2022-09-21T15:13:46;0.85;;;0.70;;
16401;SDS011;8310;44.626;11.176;2022-09-21T15:16:31;1.40;;;0.70;;
16401;SDS011;8310;44.626;11.176;2022-09-21T15:19:11;0.70;;;0.65;;
16401;SDS011;8310;44.626;11.176;2022-09-21T15:21:53;0.60;;;0.60;;
16401;SDS011;8310;44.626;11.176;2022-09-21T15:24:23;0.75;;;0.60;;
16401;SDS011;8310;44.626;11.176;2022-09-21T15:27:03;4.90;;;1.00;;
16401;SDS011;8310;44.626;11.176;2022-09-21T15:29:34;1.52;;;0.88;;
16401;SDS011;8310;44.626;11.176;2022-09-21T15:32:02;1.15;;;0.60;;
16401;SDS011;8310;44.626;11.176;2022-09-21T15:34:32;0.40;;;0.40;;
16401;SDS011;8310;44.626;11.176;2022-09-21T15:37:06;1.10;;;0.70;;
16401;SDS011;8310;44.626;11.176;2022-09-21T15:39:41;0.77;;;0.77;;
16401;SDS011;8310;44.626;11.176;2022-09-21T15:42:15;1.75;;;0.70;;
16401;SDS011;8310;44.626;11.176;2022-09-21T15:44:47;0.82;;;0.73;;
16401;SDS011;8310;44.626;11.176;2022-09-21T15:47:16;0.68;;;0.68;;
16401;SDS011;8310;44.626;11.176;2022-09-21T15:49:46;0.50;;;0.50;;